Latest Weather Observations for Coolangatta

IDQ60901

Issued at 8:21 pm EST Monday 26 September 2016 (issued every 10 minutes, with the page automatically refreshed every 10 minutes)

About weather observations | Map of Brisbane area stations | Latest observations for Brisbane area | Other Formats
Station Details ID: 040717 Name: COOLANGATTA Lat: -28.17 Lon: 153.51 Height: 4.0 m
Data from the previous 72 hours. | See also: Recent months at Coolangatta
Date/Time
EST
Temp
°C
App
Temp
°C
Dew
Point
°C
Rel
Hum
%
Delta-T
°C
Wind Press
QNH
hPa
Press
MSL
hPa
Rain since
9am
mm
Dir  Spd
km/h
Gust
km/h
Spd
kts
Gust
kts
26/08:00pm 18.6 17.6 13.5 72 2.9 NW 11 17 6 9 1011.4 1011.4 0.0
26/07:30pm 19.1 18.4 13.3 69 3.3 NNW 9 13 5 7 1010.8 1010.8 0.0
26/07:00pm 20.1 18.5 13.8 67 3.6 N 15 19 8 10 1010.8 1010.8 0.0
26/06:30pm 20.2 18.9 13.6 66 3.8 N 13 17 7 9 1010.5 1010.5 0.0
26/06:00pm 20.3 18.9 13.3 64 4.0 NNE 13 15 7 8 1010.3 1010.3 0.0
26/05:30pm 20.8 19.3 13.0 61 4.4 NNE 13 19 7 10 1010.5 1010.5 0.0
26/05:00pm 21.4 19.6 12.0 55 5.3 NNE 13 15 7 8 1010.3 1010.3 0.0
26/04:30pm 22.4 20.3 12.4 53 5.7 NE 15 19 8 10 1010.0 1010.0 0.0
26/04:00pm 22.2 19.9 11.6 51 5.9 NE 15 20 8 11 1009.9 1009.9 0.0
26/03:30pm 22.5 20.2 11.9 51 6.0 NE 15 20 8 11 1009.7 1009.7 0.0
26/03:00pm 23.4 20.7 11.8 48 6.6 ENE 17 20 9 11 1009.6 1009.6 0.0
26/02:30pm 23.0 20.1 11.1 47 6.6 ENE 17 22 9 12 1009.8 1009.8 0.0
26/02:00pm 22.9 19.7 10.0 44 7.0 ENE 17 26 9 14 1010.0 1010.0 0.0
26/01:30pm 23.2 20.2 10.6 45 7.0 E 17 22 9 12 1010.2 1010.2 0.0
26/01:00pm 22.8 19.4 11.2 48 6.5 ENE 20 26 11 14 1010.4 1010.4 0.0
26/12:30pm 23.8 20.4 11.2 45 7.0 E 20 28 11 15 1010.8 1010.8 0.0
26/12:00pm 23.6 19.4 9.9 42 7.5 E 22 26 12 14 1011.2 1011.2 0.0
26/11:30am 24.1 20.5 10.0 41 7.7 ESE 19 22 10 12 1011.6 1011.6 0.0
26/11:00am 23.4 19.6 9.8 42 7.4 E 20 28 11 15 1012.2 1012.2 0.0
26/10:30am 23.5 21.4 9.9 42 7.4 E 11 17 6 9 1012.6 1012.6 0.0
26/10:00am 23.1 20.4 8.8 40 7.6 SE 13 22 7 12 1012.8 1012.8 0.0
26/09:30am 22.5 20.0 9.6 44 7.0 SSW 13 19 7 10 1012.9 1012.9 0.0
26/09:00am 22.2 18.9 9.4 44 6.9 S 17 24 9 13 1013.1 1013.1 0.0
26/08:30am 21.7 18.7 9.3 45 6.6 SSW 15 24 8 13 1013.0 1013.0 0.0
26/08:00am 20.8 17.5 9.4 48 6.1 SSW 17 26 9 14 1012.8 1012.8 0.0
26/07:30am 20.1 17.6 9.7 51 5.6 SSW 13 20 7 11 1012.6 1012.6 0.0
26/07:00am 18.8 17.2 10.1 57 4.6 SW 9 13 5 7 1012.2 1012.2 0.0
26/06:30am 17.3 16.8 10.7 65 3.5 SW 4 7 2 4 1011.8 1011.8 0.0
26/06:00am 16.8 14.8 10.0 64 3.6 SSW 11 17 6 9 1011.6 1011.6 0.0
26/05:30am 13.1 11.4 9.9 81 1.6 WSW 9 13 5 7 1011.2 1011.2 0.0
26/05:00am 14.3 13.2 9.9 75 2.3 SE 6 7 3 4 1010.8 1010.8 0.0
26/04:30am 13.7 12.5 9.4 75 2.2 SW 6 7 3 4 1010.4 1010.4 0.0
26/04:00am 16.7 14.6 9.6 63 3.7 SSW 11 15 6 8 1010.3 1010.3 0.0
26/03:30am 16.4 14.0 10.0 66 3.4 SSW 13 17 7 9 1010.1 1010.1 0.0
26/03:00am 13.7 12.5 9.6 76 2.1 W 6 7 3 4 1009.7 1009.7 0.0
26/02:30am 13.4 12.8 8.9 74 2.3 NW 2 9 1 5 1009.5 1009.5 0.0
26/02:00am 14.7 13.0 9.9 73 2.5 W 9 11 5 6 1009.6 1009.6 0.0
26/01:30am 17.0 16.3 10.1 64 3.6 NNE 4 9 2 5 1009.8 1009.8 0.0
26/01:00am 16.5 15.4 10.1 66 3.4 WSW 6 11 3 6 1009.9 1009.9 0.0
26/12:30am 16.0 14.3 9.7 66 3.3 WSW 9 11 5 6 1009.9 1009.9 0.0
26/12:00am 16.2 14.6 10.1 67 3.2 WSW 9 11 5 6 1010.1 1010.1 0.0
 
Date/Time
EST
Temp
°C
App
Temp
°C
Dew
Point
°C
Rel
Hum
%
Delta-T
°C
Wind Press
QNH
hPa
Press
MSL
hPa
Rain since
9am
mm
Dir  Spd
km/h
Gust
km/h
Spd
kts
Gust
kts
25/11:30pm 15.2 13.9 9.1 67 3.1 W 6 11 3 6 1010.1 1010.1 0.0
25/11:00pm 16.1 13.7 10.0 67 3.2 WSW 13 15 7 8 1010.1 1010.1 0.0
25/10:30pm 16.1 13.7 10.2 68 3.1 WSW 13 15 7 8 1009.8 1009.8 0.0
25/10:00pm 16.1 14.6 9.1 63 3.6 WNW 7 9 4 5 1009.8 1009.8 0.0
25/09:30pm 16.8 15.5 9.2 61 3.9 NE 6 7 3 4 1009.8 1009.8 0.0
25/09:00pm 18.9 17.3 10.2 57 4.7 WSW 9 13 5 7 1009.5 1009.5 0.0
25/08:30pm 18.3 16.7 11.4 64 3.8 WSW 11 17 6 9 1009.1 1009.1 0.0
25/08:00pm 19.0 17.0 10.3 57 4.7 WSW 11 13 6 7 1008.7 1008.7 0.0
25/07:30pm 19.4 18.1 11.2 59 4.5 SW 9 13 5 7 1008.2 1008.2 0.0
25/07:00pm 21.2 19.2 10.1 49 6.0 SW 11 15 6 8 1007.7 1007.7 0.0
25/06:30pm 21.3 18.7 9.2 46 6.4 WNW 13 17 7 9 1007.0 1007.0 0.0
25/06:00pm 22.2 19.9 9.0 43 7.1 WNW 11 13 6 7 1006.6 1006.6 0.0
25/05:30pm 24.6 20.7 8.5 36 8.6 W 19 32 10 17 1006.2 1006.2 0.0
25/05:00pm 25.6 20.7 8.6 34 9.2 W 24 46 13 25 1005.5 1005.5 0.0
25/04:30pm 26.4 23.6 10.1 36 9.1 WSW 15 32 8 17 1004.8 1004.7 0.0
25/04:00pm 26.5 25.4 11.8 40 8.4 WSW 9 15 5 8 1004.6 1004.5 0.0
25/03:30pm 26.7 25.1 12.7 42 8.1 W 13 24 7 13 1004.4 1004.3 0.0
25/03:00pm 26.3 23.8 13.4 45 7.6 WNW 19 28 10 15 1004.5 1004.4 0.0
25/02:30pm 25.5 22.9 13.7 48 6.9 WNW 20 32 11 17 1004.9 1004.8 0.0
25/02:00pm 25.0 21.4 13.2 48 6.9 NW 24 41 13 22 1005.1 1005.1 0.0
25/01:30pm 24.4 21.0 12.4 47 6.9 WNW 22 30 12 16 1005.4 1005.4 0.0
25/01:00pm 25.9 22.8 13.4 46 7.4 WNW 22 35 12 19 1005.3 1005.3 0.0
25/12:30pm 25.7 22.3 11.1 40 8.2 WNW 20 32 11 17 1005.6 1005.6 0.0
25/12:00pm 27.0 22.7 11.9 39 8.7 WNW 26 39 14 21 1005.7 1005.7 0.0
25/11:30am 26.4 22.9 12.1 41 8.2 NW 22 35 12 19 1006.0 1006.0 0.0
25/11:00am 24.4 21.1 11.7 45 7.2 NW 20 32 11 17 1006.1 1006.1 0.0
25/10:30am 24.2 23.1 13.1 50 6.4 NW 11 20 6 11 1007.3 1007.3 0.0
25/10:00am 21.7 20.4 13.6 60 4.7 NW 13 20 7 11 1007.8 1007.8 0.0
25/09:30am 20.5 20.4 13.2 63 4.2 W 6 9 3 5 1008.3 1008.3 0.0
25/09:00am 19.5 19.7 13.2 67 3.6 SSW 4 9 2 5 1008.6 1008.6 0.0
25/08:30am 18.6 17.9 13.2 71 3.0 N 9 13 5 7 1008.7 1008.7 0.0
25/08:00am 16.7 16.9 14.2 85 1.4 WSW 6 11 3 6 1009.0 1009.0 0.0
25/07:30am 17.0 17.6 15.3 90 1.0 N 6 9 3 5 1008.9 1008.9 0.0
25/07:00am 15.4 16.4 14.3 93 0.6 WSW 2 7 1 4 1009.0 1009.0 0.0
25/06:30am 14.6 14.6 13.5 93 0.6 WSW 6 9 3 5 1009.0 1009.0 0.0
25/06:00am 14.0 13.6 13.1 94 0.5 W 7 9 4 5 1008.9 1008.9 0.0
25/05:30am 12.5 12.0 10.9 90 0.8 NNW 4 7 2 4 1008.5 1008.5 0.0
25/05:00am 13.1 12.1 12.2 94 0.5 WSW 9 11 5 6 1008.5 1008.5 0.0
25/04:30am 12.2 10.9 11.1 93 0.6 WNW 9 11 5 6 1007.9 1007.9 0.0
25/04:00am 12.3 11.0 11.4 94 0.5 W 9 11 5 6 1007.9 1007.9 0.0
25/03:30am 12.5 13.0 11.7 95 0.4 CALM 0 0 0 0 1008.0 1008.0 0.0
25/03:00am 12.7 11.6 12.1 96 0.3 WSW 9 11 5 6 1008.1 1008.1 0.0
25/02:30am 12.4 12.5 11.6 95 0.4 SSW 2 7 1 4 1008.2 1008.2 0.0
25/02:00am 12.8 12.3 12.0 95 0.4 SW 6 7 3 4 1008.5 1008.5 0.0
25/01:30am 13.4 13.1 12.8 96 0.3 SW 6 7 3 4 1008.9 1008.9 0.0
25/01:00am 13.1 12.1 12.2 94 0.5 WSW 9 9 5 5 1009.2 1009.2 0.0
25/12:30am 13.0 11.9 12.1 94 0.5 W 9 9 5 5 1009.5 1009.5 0.0
25/12:00am 12.2 11.2 10.4 89 0.9 WNW 6 9 3 5 1009.5 1009.5 0.0
 
Date/Time
EST
Temp
°C
App
Temp
°C
Dew
Point
°C
Rel
Hum
%
Delta-T
°C
Wind Press
QNH
hPa
Press
MSL
hPa
Rain since
9am
mm
Dir  Spd
km/h
Gust
km/h
Spd
kts
Gust
kts
24/11:30pm 13.9 14.7 12.6 92 0.7 CALM 0 2 0 1 1009.9 1009.9 0.0
24/11:00pm 14.4 14.6 13.0 91 0.8 SW 4 7 2 4 1010.1 1010.1 0.0
24/10:30pm 13.8 12.6 11.7 87 1.1 W 9 11 5 6 1010.2 1010.2 0.0
24/10:00pm 14.7 14.3 13.1 90 0.9 WSW 7 9 4 5 1010.3 1010.3 0.0
24/09:30pm 14.1 13.3 11.8 86 1.2 W 7 9 4 5 1010.3 1010.3 0.0
24/09:00pm 14.8 14.3 12.1 84 1.5 W 6 7 3 4 1010.4 1010.4 0.0
24/08:30pm 15.6 15.1 12.7 83 1.6 WSW 7 9 4 5 1010.6 1010.6 0.0
24/08:00pm 16.1 15.8 13.2 83 1.6 WSW 7 9 4 5 1010.6 1010.6 0.0
24/07:30pm 16.4 15.6 12.8 79 2.0 WSW 9 9 5 5 1010.6 1010.6 0.0
24/07:00pm 16.8 16.4 13.1 79 2.1 WSW 7 9 4 5 1010.4 1010.4 0.0
24/06:30pm 16.8 16.6 12.9 78 2.2 NNW 6 6 3 3 1010.1 1010.1 0.0
24/06:00pm 19.2 18.4 12.9 67 3.6 N 9 11 5 6 1009.8 1009.8 0.0
24/05:30pm 20.6 19.3 12.6 60 4.5 N 11 13 6 7 1009.3 1009.3 0.0
24/05:00pm 21.5 19.0 10.9 51 5.8 N 15 19 8 10 1009.0 1009.0 0.0
24/04:30pm 22.1 19.6 11.2 50 6.0 N 15 20 8 11 1008.8 1008.8 0.0
24/04:00pm 22.6 19.4 11.4 49 6.3 NNE 19 22 10 12 1008.7 1008.7 0.0
24/03:30pm 23.0 19.8 11.4 48 6.5 NNE 19 24 10 13 1008.8 1008.8 0.0
24/03:00pm 22.6 19.4 11.4 49 6.3 NNE 19 22 10 12 1008.8 1008.8 0.0
24/02:30pm 22.8 19.9 12.4 52 5.9 NNE 19 24 10 13 1009.0 1009.0 0.0
24/02:00pm 22.6 20.4 14.4 60 4.8 NNE 19 24 10 13 1009.0 1009.0 0.0
24/01:30pm 22.4 21.1 15.7 66 4.0 NNE 17 22 9 12 1009.5 1009.5 0.0
24/01:00pm 23.0 20.9 15.3 62 4.6 NE 20 24 11 13 1009.7 1009.7 0.0
24/12:30pm 22.9 21.7 16.0 65 4.2 NE 17 24 9 13 1010.3 1010.3 0.0
24/12:00pm 22.5 21.2 14.9 62 4.5 NE 15 22 8 12 1010.5 1010.5 0.0
24/11:30am 22.7 21.0 14.8 61 4.7 NE 17 22 9 12 1011.0 1011.0 0.0
24/11:00am 22.8 21.1 14.6 60 4.8 ENE 17 22 9 12 1011.4 1011.4 0.0
24/10:30am 22.6 21.0 13.9 58 5.1 NE 15 22 8 12 1011.9 1011.9 0.0
24/10:00am 22.4 21.4 13.5 57 5.1 ENE 11 19 6 10 1012.3 1012.3 0.0
24/09:30am 22.8 22.4 14.1 58 5.1 ENE 9 17 5 9 1012.5 1012.5 0.0
24/09:00am 22.8 22.5 14.4 59 4.9 ENE 9 15 5 8 1012.6 1012.6 0.0
24/08:30am 21.5 21.3 13.7 61 4.5 SSE 7 11 4 6 1012.7 1012.7 0.0
24/08:00am 20.2 20.1 13.4 65 3.9 SSE 6 7 3 4 1012.7 1012.7 0.0
24/07:30am 18.2 18.7 13.9 76 2.5 SSW 4 7 2 4 1012.6 1012.6 0.0
24/07:00am 15.8 16.1 13.5 86 1.3 SSW 4 6 2 3 1012.3 1012.3 0.0
24/06:30am 13.6 13.2 12.3 92 0.7 SW 6 7 3 4 1012.1 1012.1 0.0
24/06:00am 12.6 12.1 12.0 96 0.3 SW 6 7 3 4 1011.6 1011.6 0.0
24/05:30am 12.1 11.4 11.5 96 0.3 SW 6 7 3 4 1011.3 1011.3 0.0
24/05:00am 12.2 11.6 11.6 96 0.3 SSW 6 7 3 4 1011.1 1011.1 0.0
24/04:30am 12.1 11.4 11.5 96 0.3 SSW 6 7 3 4 1010.7 1010.7 0.0
24/04:00am 12.4 12.5 11.6 95 0.4 SSW 2 6 1 3 1010.5 1010.5 0.0
24/03:30am 12.9 12.5 12.3 96 0.3 SSW 6 9 3 5 1010.3 1010.3 0.0
24/03:00am 12.4 11.8 11.6 95 0.4 SW 6 7 3 4 1010.4 1010.4 0.0
24/02:30am 12.6 12.0 11.8 95 0.4 SW 6 7 3 4 1010.5 1010.5 0.0
24/02:00am 12.3 12.4 11.4 94 0.5 WSW 2 7 1 4 1010.7 1010.7 0.0
24/01:30am 12.8 12.0 11.7 93 0.6 S 7 9 4 5 1010.8 1010.8 0.0
24/01:00am 12.6 11.8 11.0 90 0.8 WSW 6 7 3 4 1010.5 1010.5 0.0
24/12:30am 13.4 13.6 11.8 90 0.9 SW 2 7 1 4 1010.8 1010.8 0.0
24/12:00am 13.4 12.8 11.6 89 1.0 SW 6 7 3 4 1011.0 1011.0 0.0
 
Date/Time
EST
Temp
°C
App
Temp
°C
Dew
Point
°C
Rel
Hum
%
Delta-T
°C
Wind Press
QNH
hPa
Press
MSL
hPa
Rain since
9am
mm
Dir  Spd
km/h
Gust
km/h
Spd
kts
Gust
kts
23/11:30pm 13.4 12.8 11.8 90 0.9 SW 6 9 3 5 1011.1 1011.1 0.0
23/11:00pm 13.6 13.7 11.5 87 1.1 SW 2 6 1 3 1011.2 1011.2 0.0
23/10:30pm 14.0 13.9 12.2 89 1.0 SW 4 7 2 4 1011.3 1011.3 0.0
23/10:00pm 14.0 14.0 12.4 90 0.9 SW 4 7 2 4 1011.4 1011.4 0.0
23/09:30pm 14.0 13.4 12.4 90 0.9 WSW 7 9 4 5 1011.5 1011.5 0.0
23/09:00pm 14.2 13.6 12.4 89 1.0 WSW 7 9 4 5 1011.5 1011.5 0.0
23/08:30pm 13.8 12.5 11.3 85 1.3 WSW 9 9 5 5 1011.4 1011.4 0.0

Latest Capital City Observations: Canberra | Sydney | Melbourne | Brisbane | Adelaide | Perth | Hobart | Darwin

Other Formats:

Comma delimited format used in spreadsheet applications
http://www.bom.gov.au/fwo/IDQ60901/IDQ60901.94592.axf

JavaScript Object Notation format (JSON) in row-major order
http://www.bom.gov.au/fwo/IDQ60901/IDQ60901.94592.json